sensor_id;sensor_type;location;lat;lon;timestamp;temperature;humidity
5459;DHT22;2752;49.992;8.422;2023-05-27T00:01:12;14.30;1.00
5459;DHT22;2752;49.992;8.422;2023-05-27T00:03:40;14.20;1.00
5459;DHT22;2752;49.992;8.422;2023-05-27T00:06:07;14.20;1.00
5459;DHT22;2752;49.992;8.422;2023-05-27T00:08:33;14.30;1.00
5459;DHT22;2752;49.992;8.422;2023-05-27T00:11:01;14.20;1.00
5459;DHT22;2752;49.992;8.422;2023-05-27T00:13:28;14.20;1.00
5459;DHT22;2752;49.992;8.422;2023-05-27T00:15:55;14.20;1.00
5459;DHT22;2752;49.992;8.422;2023-05-27T00:18:21;14.10;1.00
5459;DHT22;2752;49.992;8.422;2023-05-27T00:20:48;14.10;1.00
5459;DHT22;2752;49.992;8.422;2023-05-27T00:23:15;14.10;1.00
5459;DHT22;2752;49.992;8.422;2023-05-27T00:25:41;14.10;1.00
5459;DHT22;2752;49.992;8.422;2023-05-27T00:28:10;14.10;1.00
5459;DHT22;2752;49.992;8.422;2023-05-27T00:30:36;14.10;1.00
5459;DHT22;2752;49.992;8.422;2023-05-27T00:33:03;14.00;1.00
5459;DHT22;2752;49.992;8.422;2023-05-27T00:35:30;14.00;1.00
5459;DHT22;2752;49.992;8.422;2023-05-27T00:37:56;13.90;1.00
5459;DHT22;2752;49.992;8.422;2023-05-27T00:40:25;13.80;1.00
5459;DHT22;2752;49.992;8.422;2023-05-27T00:42:52;13.80;1.00
5459;DHT22;2752;49.992;8.422;2023-05-27T00:45:20;13.80;1.00
5459;DHT22;2752;49.992;8.422;2023-05-27T00:47:47;13.70;1.00
5459;DHT22;2752;49.992;8.422;2023-05-27T00:50:17;13.70;1.00
5459;DHT22;2752;49.992;8.422;2023-05-27T00:52:44;13.70;1.00
5459;DHT22;2752;49.992;8.422;2023-05-27T00:55:10;13.70;1.00
5459;DHT22;2752;49.992;8.422;2023-05-27T00:57:38;13.70;1.00
5459;DHT22;2752;49.992;8.422;2023-05-27T01:00:06;13.60;1.00
5459;DHT22;2752;49.992;8.422;2023-05-27T01:02:36;13.60;1.00
5459;DHT22;2752;49.992;8.422;2023-05-27T01:05:06;13.70;1.00
5459;DHT22;2752;49.992;8.422;2023-05-27T01:07:37;13.60;1.00
5459;DHT22;2752;49.992;8.422;2023-05-27T01:10:11;13.50;1.00
5459;DHT22;2752;49.992;8.422;2023-05-27T01:12:44;13.50;1.00
5459;DHT22;2752;49.992;8.422;2023-05-27T01:15:13;13.50;1.00
5459;DHT22;2752;49.992;8.422;2023-05-27T01:17:42;13.50;1.00
5459;DHT22;2752;49.992;8.422;2023-05-27T01:20:11;13.50;1.00
5459;DHT22;2752;49.992;8.422;2023-05-27T01:22:40;13.40;1.00
5459;DHT22;2752;49.992;8.422;2023-05-27T01:25:08;13.40;1.00
5459;DHT22;2752;49.992;8.422;2023-05-27T01:27:35;13.40;1.00
5459;DHT22;2752;49.992;8.422;2023-05-27T01:30:06;13.40;1.00
5459;DHT22;2752;49.992;8.422;2023-05-27T01:32:36;13.30;1.00
5459;DHT22;2752;49.992;8.422;2023-05-27T01:35:14;13.30;1.00
5459;DHT22;2752;49.992;8.422;2023-05-27T01:37:45;13.30;1.00
5459;DHT22;2752;49.992;8.422;2023-05-27T01:40:14;13.20;1.00
5459;DHT22;2752;49.992;8.422;2023-05-27T01:42:41;13.20;1.00
5459;DHT22;2752;49.992;8.422;2023-05-27T01:45:10;13.30;1.00
5459;DHT22;2752;49.992;8.422;2023-05-27T01:47:37;13.20;1.00
5459;DHT22;2752;49.992;8.422;2023-05-27T01:50:04;13.10;1.00
5459;DHT22;2752;49.992;8.422;2023-05-27T01:52:31;13.10;1.00
5459;DHT22;2752;49.992;8.422;2023-05-27T01:54:59;13.10;1.00
5459;DHT22;2752;49.992;8.422;2023-05-27T01:57:26;13.00;1.00
5459;DHT22;2752;49.992;8.422;2023-05-27T01:59:52;13.00;1.00
5459;DHT22;2752;49.992;8.422;2023-05-27T02:02:19;13.00;1.00
5459;DHT22;2752;49.992;8.422;2023-05-27T02:04:46;12.90;1.00
5459;DHT22;2752;49.992;8.422;2023-05-27T02:07:12;12.90;1.00
5459;DHT22;2752;49.992;8.422;2023-05-27T02:09:39;12.90;1.00
5459;DHT22;2752;49.992;8.422;2023-05-27T02:12:07;12.80;1.00
5459;DHT22;2752;49.992;8.422;2023-05-27T02:14:34;12.90;1.00
5459;DHT22;2752;49.992;8.422;2023-05-27T02:17:04;12.90;1.00
5459;DHT22;2752;49.992;8.422;2023-05-27T02:19:31;12.80;1.00
5459;DHT22;2752;49.992;8.422;2023-05-27T02:21:58;12.80;1.00
5459;DHT22;2752;49.992;8.422;2023-05-27T02:24:25;12.70;1.00
5459;DHT22;2752;49.992;8.422;2023-05-27T02:26:51;12.70;1.00
5459;DHT22;2752;49.992;8.422;2023-05-27T02:29:19;12.70;1.00
5459;DHT22;2752;49.992;8.422;2023-05-27T02:31:46;12.70;1.00
5459;DHT22;2752;49.992;8.422;2023-05-27T02:34:12;12.70;1.00
5459;DHT22;2752;49.992;8.422;2023-05-27T02:36:40;12.60;1.00
5459;DHT22;2752;49.992;8.422;2023-05-27T02:39:07;12.70;1.00
5459;DHT22;2752;49.992;8.422;2023-05-27T02:41:34;12.60;1.00
5459;DHT22;2752;49.992;8.422;2023-05-27T02:44:00;12.60;1.00
5459;DHT22;2752;49.992;8.422;2023-05-27T02:46:29;12.60;1.00
5459;DHT22;2752;49.992;8.422;2023-05-27T02:48:55;12.60;1.00
5459;DHT22;2752;49.992;8.422;2023-05-27T02:51:22;12.50;1.00
5459;DHT22;2752;49.992;8.422;2023-05-27T02:53:49;12.50;1.00
5459;DHT22;2752;49.992;8.422;2023-05-27T02:56:16;12.50;1.00
5459;DHT22;2752;49.992;8.422;2023-05-27T02:58:43;12.50;1.00
5459;DHT22;2752;49.992;8.422;2023-05-27T03:01:10;12.40;1.00
5459;DHT22;2752;49.992;8.422;2023-05-27T03:03:39;12.40;1.00
5459;DHT22;2752;49.992;8.422;2023-05-27T03:06:06;12.30;1.00
5459;DHT22;2752;49.992;8.422;2023-05-27T03:08:33;12.20;1.00
5459;DHT22;2752;49.992;8.422;2023-05-27T03:10:59;12.20;1.00
5459;DHT22;2752;49.992;8.422;2023-05-27T03:13:26;12.20;1.00
5459;DHT22;2752;49.992;8.422;2023-05-27T03:15:53;12.20;1.00
5459;DHT22;2752;49.992;8.422;2023-05-27T03:18:20;12.10;1.00
5459;DHT22;2752;49.992;8.422;2023-05-27T03:20:48;12.10;1.00
5459;DHT22;2752;49.992;8.422;2023-05-27T03:23:15;12.00;1.00
5459;DHT22;2752;49.992;8.422;2023-05-27T03:25:42;12.00;1.00
5459;DHT22;2752;49.992;8.422;2023-05-27T03:28:09;12.00;1.00
5459;DHT22;2752;49.992;8.422;2023-05-27T03:33:03;12.00;1.00
5459;DHT22;2752;49.992;8.422;2023-05-27T03:35:30;12.00;1.00
5459;DHT22;2752;49.992;8.422;2023-05-27T03:37:58;12.00;1.00
5459;DHT22;2752;49.992;8.422;2023-05-27T03:40:25;11.90;1.00
5459;DHT22;2752;49.992;8.422;2023-05-27T03:42:52;11.90;1.00
5459;DHT22;2752;49.992;8.422;2023-05-27T03:45:19;11.90;1.00
5459;DHT22;2752;49.992;8.422;2023-05-27T03:47:45;11.90;1.00
5459;DHT22;2752;49.992;8.422;2023-05-27T03:50:12;11.90;1.00
5459;DHT22;2752;49.992;8.422;2023-05-27T03:52:39;11.90;1.00
5459;DHT22;2752;49.992;8.422;2023-05-27T03:55:08;12.00;1.00
5459;DHT22;2752;49.992;8.422;2023-05-27T03:57:34;11.90;1.00
5459;DHT22;2752;49.992;8.422;2023-05-27T04:00:01;11.90;1.00
5459;DHT22;2752;49.992;8.422;2023-05-27T04:02:31;12.00;1.00
5459;DHT22;2752;49.992;8.422;2023-05-27T04:04:58;12.00;1.00
5459;DHT22;2752;49.992;8.422;2023-05-27T04:07:25;12.00;1.00
5459;DHT22;2752;49.992;8.422;2023-05-27T04:09:54;12.00;1.00
5459;DHT22;2752;49.992;8.422;2023-05-27T04:12:22;12.10;1.00
5459;DHT22;2752;49.992;8.422;2023-05-27T04:14:49;12.10;1.00
5459;DHT22;2752;49.992;8.422;2023-05-27T04:17:16;12.10;1.00
5459;DHT22;2752;49.992;8.422;2023-05-27T04:19:42;12.10;1.00
5459;DHT22;2752;49.992;8.422;2023-05-27T04:22:09;12.00;1.00
5459;DHT22;2752;49.992;8.422;2023-05-27T04:24:36;12.00;1.00
5459;DHT22;2752;49.992;8.422;2023-05-27T04:27:04;12.00;1.00
5459;DHT22;2752;49.992;8.422;2023-05-27T04:29:33;12.00;1.00
5459;DHT22;2752;49.992;8.422;2023-05-27T04:32:00;12.00;1.00
5459;DHT22;2752;49.992;8.422;2023-05-27T04:34:26;12.00;1.00
5459;DHT22;2752;49.992;8.422;2023-05-27T04:36:53;12.10;1.00
5459;DHT22;2752;49.992;8.422;2023-05-27T04:39:21;12.00;1.00
5459;DHT22;2752;49.992;8.422;2023-05-27T04:41:48;12.10;1.00
5459;DHT22;2752;49.992;8.422;2023-05-27T04:44:14;12.00;1.00
5459;DHT22;2752;49.992;8.422;2023-05-27T04:46:43;12.00;1.00
5459;DHT22;2752;49.992;8.422;2023-05-27T04:49:10;12.10;1.00
5459;DHT22;2752;49.992;8.422;2023-05-27T04:51:37;12.10;1.00
5459;DHT22;2752;49.992;8.422;2023-05-27T04:54:03;12.20;1.00
5459;DHT22;2752;49.992;8.422;2023-05-27T04:56:31;12.20;1.00
5459;DHT22;2752;49.992;8.422;2023-05-27T04:58:57;12.20;1.00
5459;DHT22;2752;49.992;8.422;2023-05-27T05:01:25;12.30;1.00
5459;DHT22;2752;49.992;8.422;2023-05-27T05:03:54;12.30;1.00
5459;DHT22;2752;49.992;8.422;2023-05-27T05:06:37;12.40;1.00
5459;DHT22;2752;49.992;8.422;2023-05-27T05:09:04;12.40;1.00
5459;DHT22;2752;49.992;8.422;2023-05-27T05:11:31;12.50;1.00
5459;DHT22;2752;49.992;8.422;2023-05-27T05:13:57;12.50;1.00
5459;DHT22;2752;49.992;8.422;2023-05-27T05:16:24;12.60;1.00
5459;DHT22;2752;49.992;8.422;2023-05-27T05:18:51;12.70;1.00
5459;DHT22;2752;49.992;8.422;2023-05-27T05:21:19;13.00;1.00
5459;DHT22;2752;49.992;8.422;2023-05-27T05:23:46;12.80;1.00
5459;DHT22;2752;49.992;8.422;2023-05-27T05:26:13;12.80;1.00
5459;DHT22;2752;49.992;8.422;2023-05-27T05:28:39;12.90;1.00
5459;DHT22;2752;49.992;8.422;2023-05-27T05:31:06;13.00;1.00
5459;DHT22;2752;49.992;8.422;2023-05-27T05:33:33;13.00;1.00
5459;DHT22;2752;49.992;8.422;2023-05-27T05:36:00;13.10;1.00
5459;DHT22;2752;49.992;8.422;2023-05-27T05:38:28;13.10;1.00
5459;DHT22;2752;49.992;8.422;2023-05-27T05:40:55;13.20;1.00
5459;DHT22;2752;49.992;8.422;2023-05-27T05:43:22;13.20;1.00
5459;DHT22;2752;49.992;8.422;2023-05-27T05:45:48;13.30;1.00
5459;DHT22;2752;49.992;8.422;2023-05-27T05:48:15;13.40;1.00
5459;DHT22;2752;49.992;8.422;2023-05-27T05:50:42;13.50;1.00
5459;DHT22;2752;49.992;8.422;2023-05-27T05:53:09;13.60;1.00
5459;DHT22;2752;49.992;8.422;2023-05-27T05:55:37;13.60;1.00
5459;DHT22;2752;49.992;8.422;2023-05-27T05:58:05;13.50;1.00
5459;DHT22;2752;49.992;8.422;2023-05-27T06:00:32;13.70;1.00
5459;DHT22;2752;49.992;8.422;2023-05-27T06:02:59;13.70;1.00
5459;DHT22;2752;49.992;8.422;2023-05-27T06:05:26;13.70;1.00
5459;DHT22;2752;49.992;8.422;2023-05-27T06:07:53;13.80;1.00
5459;DHT22;2752;49.992;8.422;2023-05-27T06:10:20;13.80;1.00
5459;DHT22;2752;49.992;8.422;2023-05-27T06:12:48;13.80;1.00
5459;DHT22;2752;49.992;8.422;2023-05-27T06:15:15;13.90;1.00
5459;DHT22;2752;49.992;8.422;2023-05-27T06:17:41;13.90;1.00
5459;DHT22;2752;49.992;8.422;2023-05-27T06:20:08;14.00;1.00
5459;DHT22;2752;49.992;8.422;2023-05-27T06:22:36;14.10;1.00
5459;DHT22;2752;49.992;8.422;2023-05-27T06:25:03;14.30;1.00
5459;DHT22;2752;49.992;8.422;2023-05-27T06:27:29;14.40;1.00
5459;DHT22;2752;49.992;8.422;2023-05-27T06:29:57;14.50;1.00
5459;DHT22;2752;49.992;8.422;2023-05-27T06:32:24;14.60;1.00
5459;DHT22;2752;49.992;8.422;2023-05-27T06:34:51;14.60;1.00
5459;DHT22;2752;49.992;8.422;2023-05-27T06:37:17;14.70;1.00
5459;DHT22;2752;49.992;8.422;2023-05-27T06:39:44;14.80;1.00
5459;DHT22;2752;49.992;8.422;2023-05-27T06:42:11;14.90;1.00
5459;DHT22;2752;49.992;8.422;2023-05-27T06:44:37;15.00;1.00
5459;DHT22;2752;49.992;8.422;2023-05-27T06:47:05;15.10;1.00
5459;DHT22;2752;49.992;8.422;2023-05-27T06:49:32;15.10;1.00
5459;DHT22;2752;49.992;8.422;2023-05-27T06:51:59;15.20;1.00
5459;DHT22;2752;49.992;8.422;2023-05-27T06:54:25;15.30;1.00
5459;DHT22;2752;49.992;8.422;2023-05-27T06:56:52;15.50;1.00
5459;DHT22;2752;49.992;8.422;2023-05-27T06:59:19;15.60;1.00
5459;DHT22;2752;49.992;8.422;2023-05-27T07:01:45;15.60;1.00
5459;DHT22;2752;49.992;8.422;2023-05-27T07:04:13;15.60;1.00
5459;DHT22;2752;49.992;8.422;2023-05-27T07:06:40;15.70;1.00
5459;DHT22;2752;49.992;8.422;2023-05-27T07:09:07;15.80;1.00
5459;DHT22;2752;49.992;8.422;2023-05-27T07:11:33;15.90;1.00
5459;DHT22;2752;49.992;8.422;2023-05-27T07:14:00;15.90;1.00
5459;DHT22;2752;49.992;8.422;2023-05-27T07:16:27;15.90;1.00
5459;DHT22;2752;49.992;8.422;2023-05-27T07:18:53;16.00;1.00
5459;DHT22;2752;49.992;8.422;2023-05-27T07:21:21;15.90;1.00
5459;DHT22;2752;49.992;8.422;2023-05-27T07:23:48;16.00;1.00
5459;DHT22;2752;49.992;8.422;2023-05-27T07:26:15;16.10;1.00
5459;DHT22;2752;49.992;8.422;2023-05-27T07:28:41;16.20;1.00
5459;DHT22;2752;49.992;8.422;2023-05-27T07:31:08;16.20;1.00
5459;DHT22;2752;49.992;8.422;2023-05-27T07:33:35;16.30;1.00
5459;DHT22;2752;49.992;8.422;2023-05-27T07:36:03;16.30;1.00
5459;DHT22;2752;49.992;8.422;2023-05-27T07:38:33;16.30;1.00
5459;DHT22;2752;49.992;8.422;2023-05-27T07:41:02;16.40;1.00
5459;DHT22;2752;49.992;8.422;2023-05-27T07:43:30;16.60;1.00
5459;DHT22;2752;49.992;8.422;2023-05-27T07:45:58;16.60;1.00
5459;DHT22;2752;49.992;8.422;2023-05-27T07:48:26;16.80;1.00
5459;DHT22;2752;49.992;8.422;2023-05-27T07:50:54;16.90;1.00
5459;DHT22;2752;49.992;8.422;2023-05-27T07:53:21;17.00;1.00
5459;DHT22;2752;49.992;8.422;2023-05-27T07:55:49;17.00;1.00
5459;DHT22;2752;49.992;8.422;2023-05-27T07:58:16;17.10;1.00
5459;DHT22;2752;49.992;8.422;2023-05-27T08:00:42;17.10;1.00
5459;DHT22;2752;49.992;8.422;2023-05-27T08:03:09;17.20;1.00
5459;DHT22;2752;49.992;8.422;2023-05-27T08:05:36;17.20;1.00
5459;DHT22;2752;49.992;8.422;2023-05-27T08:08:03;17.10;1.00
5459;DHT22;2752;49.992;8.422;2023-05-27T08:10:29;17.40;1.00
5459;DHT22;2752;49.992;8.422;2023-05-27T08:12:57;17.60;1.00
5459;DHT22;2752;49.992;8.422;2023-05-27T08:15:24;17.70;1.00
5459;DHT22;2752;49.992;8.422;2023-05-27T08:17:51;17.90;1.00
5459;DHT22;2752;49.992;8.422;2023-05-27T08:20:17;18.00;1.00
5459;DHT22;2752;49.992;8.422;2023-05-27T08:22:44;18.00;1.00
5459;DHT22;2752;49.992;8.422;2023-05-27T08:25:11;18.00;1.00
5459;DHT22;2752;49.992;8.422;2023-05-27T08:27:42;18.10;1.00
5459;DHT22;2752;49.992;8.422;2023-05-27T08:30:11;18.10;1.00
5459;DHT22;2752;49.992;8.422;2023-05-27T08:32:38;18.20;1.00
5459;DHT22;2752;49.992;8.422;2023-05-27T08:35:05;18.20;1.00
5459;DHT22;2752;49.992;8.422;2023-05-27T08:37:32;18.30;1.00
5459;DHT22;2752;49.992;8.422;2023-05-27T08:39:58;18.40;1.00
5459;DHT22;2752;49.992;8.422;2023-05-27T08:42:25;18.50;1.00
5459;DHT22;2752;49.992;8.422;2023-05-27T08:44:52;18.50;1.00
5459;DHT22;2752;49.992;8.422;2023-05-27T08:47:20;18.60;1.00
5459;DHT22;2752;49.992;8.422;2023-05-27T08:49:47;18.60;1.00
5459;DHT22;2752;49.992;8.422;2023-05-27T08:52:18;18.70;1.00
5459;DHT22;2752;49.992;8.422;2023-05-27T08:54:45;18.80;1.00
5459;DHT22;2752;49.992;8.422;2023-05-27T08:57:13;19.00;1.00
5459;DHT22;2752;49.992;8.422;2023-05-27T08:59:42;18.90;1.00
5459;DHT22;2752;49.992;8.422;2023-05-27T09:02:11;18.90;1.00
5459;DHT22;2752;49.992;8.422;2023-05-27T09:04:40;19.00;1.00
5459;DHT22;2752;49.992;8.422;2023-05-27T09:07:08;19.30;1.00
5459;DHT22;2752;49.992;8.422;2023-05-27T09:09:36;19.30;1.00
5459;DHT22;2752;49.992;8.422;2023-05-27T09:12:03;19.50;1.00
5459;DHT22;2752;49.992;8.422;2023-05-27T09:14:31;19.70;1.00
5459;DHT22;2752;49.992;8.422;2023-05-27T09:17:05;19.90;1.00
5459;DHT22;2752;49.992;8.422;2023-05-27T09:19:33;19.80;1.00
5459;DHT22;2752;49.992;8.422;2023-05-27T09:22:01;19.80;1.00
5459;DHT22;2752;49.992;8.422;2023-05-27T09:24:28;19.90;1.00
5459;DHT22;2752;49.992;8.422;2023-05-27T09:26:55;20.10;1.00
5459;DHT22;2752;49.992;8.422;2023-05-27T09:29:23;20.00;1.00
5459;DHT22;2752;49.992;8.422;2023-05-27T09:31:53;20.00;1.00
5459;DHT22;2752;49.992;8.422;2023-05-27T09:34:21;19.90;1.00
5459;DHT22;2752;49.992;8.422;2023-05-27T09:36:49;20.00;1.00
5459;DHT22;2752;49.992;8.422;2023-05-27T09:39:18;20.20;1.00
5459;DHT22;2752;49.992;8.422;2023-05-27T09:41:50;20.30;1.00
5459;DHT22;2752;49.992;8.422;2023-05-27T09:44:17;20.40;1.00
5459;DHT22;2752;49.992;8.422;2023-05-27T09:46:45;20.50;1.00
5459;DHT22;2752;49.992;8.422;2023-05-27T09:49:13;20.50;1.00
5459;DHT22;2752;49.992;8.422;2023-05-27T09:51:41;20.50;1.00
5459;DHT22;2752;49.992;8.422;2023-05-27T09:54:08;20.60;1.00
5459;DHT22;2752;49.992;8.422;2023-05-27T09:56:37;20.80;1.00
5459;DHT22;2752;49.992;8.422;2023-05-27T09:59:04;21.00;1.00
5459;DHT22;2752;49.992;8.422;2023-05-27T10:01:32;21.00;1.00
5459;DHT22;2752;49.992;8.422;2023-05-27T10:04:01;21.20;1.00
5459;DHT22;2752;49.992;8.422;2023-05-27T10:06:29;21.30;1.00
5459;DHT22;2752;49.992;8.422;2023-05-27T10:08:57;21.30;1.00
5459;DHT22;2752;49.992;8.422;2023-05-27T10:11:24;21.30;1.00
5459;DHT22;2752;49.992;8.422;2023-05-27T10:13:53;21.40;1.00
5459;DHT22;2752;49.992;8.422;2023-05-27T10:16:20;21.50;1.00
5459;DHT22;2752;49.992;8.422;2023-05-27T10:18:47;21.60;1.00
5459;DHT22;2752;49.992;8.422;2023-05-27T10:21:18;21.80;1.00
5459;DHT22;2752;49.992;8.422;2023-05-27T10:23:52;21.80;1.00
5459;DHT22;2752;49.992;8.422;2023-05-27T10:26:19;21.80;1.00
5459;DHT22;2752;49.992;8.422;2023-05-27T10:28:46;21.70;1.00
5459;DHT22;2752;49.992;8.422;2023-05-27T10:31:16;21.70;1.00
5459;DHT22;2752;49.992;8.422;2023-05-27T10:33:45;21.80;1.00
5459;DHT22;2752;49.992;8.422;2023-05-27T10:36:13;21.90;1.00
5459;DHT22;2752;49.992;8.422;2023-05-27T10:38:41;22.10;1.00
5459;DHT22;2752;49.992;8.422;2023-05-27T10:41:08;22.10;1.00
5459;DHT22;2752;49.992;8.422;2023-05-27T10:43:36;22.20;1.00
5459;DHT22;2752;49.992;8.422;2023-05-27T10:46:07;22.20;1.00
5459;DHT22;2752;49.992;8.422;2023-05-27T10:48:36;22.30;1.00
5459;DHT22;2752;49.992;8.422;2023-05-27T10:51:05;22.30;1.00
5459;DHT22;2752;49.992;8.422;2023-05-27T10:53:35;22.50;1.00
5459;DHT22;2752;49.992;8.422;2023-05-27T10:56:02;22.60;1.00
5459;DHT22;2752;49.992;8.422;2023-05-27T10:58:29;22.40;1.00
5459;DHT22;2752;49.992;8.422;2023-05-27T11:01:01;22.60;1.00
5459;DHT22;2752;49.992;8.422;2023-05-27T11:03:33;22.50;1.00
5459;DHT22;2752;49.992;8.422;2023-05-27T11:06:02;22.60;1.00
5459;DHT22;2752;49.992;8.422;2023-05-27T11:08:31;22.70;1.00
5459;DHT22;2752;49.992;8.422;2023-05-27T11:10:59;22.90;1.00
5459;DHT22;2752;49.992;8.422;2023-05-27T11:13:30;23.00;1.00
5459;DHT22;2752;49.992;8.422;2023-05-27T11:15:57;23.10;1.00
5459;DHT22;2752;49.992;8.422;2023-05-27T11:18:24;22.90;1.00
5459;DHT22;2752;49.992;8.422;2023-05-27T11:20:50;22.80;1.00
5459;DHT22;2752;49.992;8.422;2023-05-27T11:23:18;22.90;1.00
5459;DHT22;2752;49.992;8.422;2023-05-27T11:25:46;23.00;1.00
5459;DHT22;2752;49.992;8.422;2023-05-27T11:28:15;23.30;1.00
5459;DHT22;2752;49.992;8.422;2023-05-27T11:30:42;23.20;1.00
5459;DHT22;2752;49.992;8.422;2023-05-27T11:33:09;23.10;1.00
5459;DHT22;2752;49.992;8.422;2023-05-27T11:35:35;23.30;1.00
5459;DHT22;2752;49.992;8.422;2023-05-27T11:38:02;23.40;1.00
5459;DHT22;2752;49.992;8.422;2023-05-27T11:40:35;23.50;1.00
5459;DHT22;2752;49.992;8.422;2023-05-27T11:43:02;23.50;1.00
5459;DHT22;2752;49.992;8.422;2023-05-27T11:45:29;23.60;1.00
5459;DHT22;2752;49.992;8.422;2023-05-27T11:47:56;23.90;1.00
5459;DHT22;2752;49.992;8.422;2023-05-27T11:50:24;24.20;1.00
5459;DHT22;2752;49.992;8.422;2023-05-27T11:52:53;23.80;1.00
5459;DHT22;2752;49.992;8.422;2023-05-27T11:55:20;23.60;1.00
5459;DHT22;2752;49.992;8.422;2023-05-27T11:57:48;23.70;1.00
5459;DHT22;2752;49.992;8.422;2023-05-27T12:00:15;23.50;1.00
5459;DHT22;2752;49.992;8.422;2023-05-27T12:02:43;23.80;1.00
5459;DHT22;2752;49.992;8.422;2023-05-27T12:05:10;24.00;1.00
5459;DHT22;2752;49.992;8.422;2023-05-27T12:07:37;24.10;1.00
5459;DHT22;2752;49.992;8.422;2023-05-27T12:10:06;24.20;1.00
5459;DHT22;2752;49.992;8.422;2023-05-27T12:12:34;24.30;1.00
5459;DHT22;2752;49.992;8.422;2023-05-27T12:15:04;24.10;1.00
5459;DHT22;2752;49.992;8.422;2023-05-27T12:17:32;24.10;1.00
5459;DHT22;2752;49.992;8.422;2023-05-27T12:20:05;24.30;1.00
5459;DHT22;2752;49.992;8.422;2023-05-27T12:22:33;24.20;1.00
5459;DHT22;2752;49.992;8.422;2023-05-27T12:25:00;24.20;1.00
5459;DHT22;2752;49.992;8.422;2023-05-27T12:27:27;24.20;1.00
5459;DHT22;2752;49.992;8.422;2023-05-27T12:29:53;24.20;1.00
5459;DHT22;2752;49.992;8.422;2023-05-27T12:32:21;24.20;1.00
5459;DHT22;2752;49.992;8.422;2023-05-27T12:34:48;24.20;1.00
5459;DHT22;2752;49.992;8.422;2023-05-27T12:37:15;24.30;1.00
5459;DHT22;2752;49.992;8.422;2023-05-27T12:39:43;24.30;1.00
5459;DHT22;2752;49.992;8.422;2023-05-27T12:42:10;24.30;1.00
5459;DHT22;2752;49.992;8.422;2023-05-27T12:44:36;24.50;1.00
5459;DHT22;2752;49.992;8.422;2023-05-27T12:47:03;24.20;1.00
5459;DHT22;2752;49.992;8.422;2023-05-27T12:49:31;24.20;1.00
5459;DHT22;2752;49.992;8.422;2023-05-27T12:51:58;24.40;1.00
5459;DHT22;2752;49.992;8.422;2023-05-27T12:54:25;24.50;1.00
5459;DHT22;2752;49.992;8.422;2023-05-27T12:56:52;24.60;1.00
5459;DHT22;2752;49.992;8.422;2023-05-27T12:59:19;24.60;1.00
5459;DHT22;2752;49.992;8.422;2023-05-27T13:01:45;24.60;1.00
5459;DHT22;2752;49.992;8.422;2023-05-27T13:04:12;24.70;1.00
5459;DHT22;2752;49.992;8.422;2023-05-27T13:06:40;24.80;1.00
5459;DHT22;2752;49.992;8.422;2023-05-27T13:11:34;24.70;1.00
5459;DHT22;2752;49.992;8.422;2023-05-27T13:14:01;24.60;1.00
5459;DHT22;2752;49.992;8.422;2023-05-27T13:16:27;24.60;1.00
5459;DHT22;2752;49.992;8.422;2023-05-27T13:18:54;24.70;1.00
5459;DHT22;2752;49.992;8.422;2023-05-27T13:21:21;24.90;1.00
5459;DHT22;2752;49.992;8.422;2023-05-27T13:23:49;24.90;1.00
5459;DHT22;2752;49.992;8.422;2023-05-27T13:26:16;25.10;1.00
5459;DHT22;2752;49.992;8.422;2023-05-27T13:28:42;25.30;1.00
5459;DHT22;2752;49.992;8.422;2023-05-27T13:31:09;25.70;1.00
5459;DHT22;2752;49.992;8.422;2023-05-27T13:33:35;26.00;1.00
5459;DHT22;2752;49.992;8.422;2023-05-27T13:36:03;26.10;1.00
5459;DHT22;2752;49.992;8.422;2023-05-27T13:40:58;25.90;1.00
5459;DHT22;2752;49.992;8.422;2023-05-27T13:43:25;25.70;1.00
5459;DHT22;2752;49.992;8.422;2023-05-27T13:45:52;25.80;1.00
5459;DHT22;2752;49.992;8.422;2023-05-27T13:48:18;25.80;1.00
5459;DHT22;2752;49.992;8.422;2023-05-27T13:50:45;25.50;1.00
5459;DHT22;2752;49.992;8.422;2023-05-27T13:53:12;25.50;1.00
5459;DHT22;2752;49.992;8.422;2023-05-27T13:55:38;25.60;1.00
5459;DHT22;2752;49.992;8.422;2023-05-27T13:58:06;25.50;1.00
5459;DHT22;2752;49.992;8.422;2023-05-27T14:00:33;25.30;1.00
5459;DHT22;2752;49.992;8.422;2023-05-27T14:03:00;25.30;1.00
5459;DHT22;2752;49.992;8.422;2023-05-27T14:05:26;25.30;1.00
5459;DHT22;2752;49.992;8.422;2023-05-27T14:07:54;25.10;1.00
5459;DHT22;2752;49.992;8.422;2023-05-27T14:10:21;25.10;1.00
5459;DHT22;2752;49.992;8.422;2023-05-27T14:12:47;25.20;1.00
5459;DHT22;2752;49.992;8.422;2023-05-27T14:15:15;25.30;1.00
5459;DHT22;2752;49.992;8.422;2023-05-27T14:17:42;25.60;1.00
5459;DHT22;2752;49.992;8.422;2023-05-27T14:20:09;25.80;1.00
5459;DHT22;2752;49.992;8.422;2023-05-27T14:22:39;25.80;1.00
5459;DHT22;2752;49.992;8.422;2023-05-27T14:25:08;25.80;1.00
5459;DHT22;2752;49.992;8.422;2023-05-27T14:27:35;25.90;1.00
5459;DHT22;2752;49.992;8.422;2023-05-27T14:30:01;25.90;1.00
5459;DHT22;2752;49.992;8.422;2023-05-27T14:32:30;25.90;1.00
5459;DHT22;2752;49.992;8.422;2023-05-27T14:34:56;25.20;1.00
5459;DHT22;2752;49.992;8.422;2023-05-27T14:37:23;25.20;1.00
5459;DHT22;2752;49.992;8.422;2023-05-27T14:39:51;25.30;1.00
5459;DHT22;2752;49.992;8.422;2023-05-27T14:42:18;25.50;1.00
5459;DHT22;2752;49.992;8.422;2023-05-27T14:44:45;25.70;1.00
5459;DHT22;2752;49.992;8.422;2023-05-27T14:47:12;25.80;1.00
5459;DHT22;2752;49.992;8.422;2023-05-27T14:49:40;25.90;1.00
5459;DHT22;2752;49.992;8.422;2023-05-27T14:52:06;26.20;1.00
5459;DHT22;2752;49.992;8.422;2023-05-27T14:54:33;26.40;1.00
5459;DHT22;2752;49.992;8.422;2023-05-27T14:57:00;26.50;1.00
5459;DHT22;2752;49.992;8.422;2023-05-27T14:59:26;26.50;1.00
5459;DHT22;2752;49.992;8.422;2023-05-27T15:01:53;26.60;1.00
5459;DHT22;2752;49.992;8.422;2023-05-27T15:04:20;26.70;1.00
5459;DHT22;2752;49.992;8.422;2023-05-27T15:06:48;26.80;1.00
5459;DHT22;2752;49.992;8.422;2023-05-27T15:09:15;26.90;1.00
5459;DHT22;2752;49.992;8.422;2023-05-27T15:11:42;26.90;1.00
5459;DHT22;2752;49.992;8.422;2023-05-27T15:14:09;26.80;1.00
5459;DHT22;2752;49.992;8.422;2023-05-27T15:16:35;27.10;1.00
5459;DHT22;2752;49.992;8.422;2023-05-27T15:19:02;27.30;1.00
5459;DHT22;2752;49.992;8.422;2023-05-27T15:21:29;27.40;1.00
5459;DHT22;2752;49.992;8.422;2023-05-27T15:23:58;27.50;1.00
5459;DHT22;2752;49.992;8.422;2023-05-27T15:26:25;27.30;1.00
5459;DHT22;2752;49.992;8.422;2023-05-27T15:28:52;26.80;1.00
5459;DHT22;2752;49.992;8.422;2023-05-27T15:31:19;26.80;1.00
5459;DHT22;2752;49.992;8.422;2023-05-27T15:33:47;26.90;1.00
5459;DHT22;2752;49.992;8.422;2023-05-27T15:36:15;27.10;1.00
5459;DHT22;2752;49.992;8.422;2023-05-27T15:38:42;27.40;1.00
5459;DHT22;2752;49.992;8.422;2023-05-27T15:41:10;27.60;1.00
5459;DHT22;2752;49.992;8.422;2023-05-27T15:46:04;27.70;1.00
5459;DHT22;2752;49.992;8.422;2023-05-27T15:48:31;27.80;1.00
5459;DHT22;2752;49.992;8.422;2023-05-27T15:50:57;27.80;1.00
5459;DHT22;2752;49.992;8.422;2023-05-27T15:53:24;27.90;1.00
5459;DHT22;2752;49.992;8.422;2023-05-27T15:58:19;28.50;1.00
5459;DHT22;2752;49.992;8.422;2023-05-27T16:00:46;28.80;1.00
5459;DHT22;2752;49.992;8.422;2023-05-27T16:03:12;28.90;1.00
5459;DHT22;2752;49.992;8.422;2023-05-27T16:05:39;28.60;1.00
5459;DHT22;2752;49.992;8.422;2023-05-27T16:08:07;28.20;1.00
5459;DHT22;2752;49.992;8.422;2023-05-27T16:10:43;28.10;1.00
5459;DHT22;2752;49.992;8.422;2023-05-27T16:13:10;27.70;1.00
5459;DHT22;2752;49.992;8.422;2023-05-27T16:15:38;27.40;1.00
5459;DHT22;2752;49.992;8.422;2023-05-27T16:18:04;27.50;1.00
5459;DHT22;2752;49.992;8.422;2023-05-27T16:20:31;27.10;1.00
5459;DHT22;2752;49.992;8.422;2023-05-27T16:22:58;27.00;1.00
5459;DHT22;2752;49.992;8.422;2023-05-27T16:25:24;26.50;1.00
5459;DHT22;2752;49.992;8.422;2023-05-27T16:30:18;26.60;1.00
5459;DHT22;2752;49.992;8.422;2023-05-27T16:32:46;26.80;1.00